Terminal Aerodrome Forecast
Issued by NWS Northern Indiana

Home | Current Version | Previous Version | Text Only | Print | Product List | Glossary Off
Versions: 1 2 3 4 5 6 7 8 9 10 11 12 13 14 15 16

193
FTUS43 KIWX 262327
TAFFWA
TAF
KFWA 262327Z 2700/2724 13007KT 6SM -SHRA BR VCTS SCT050CB BKN150
      TEMPO 2700/2702 4SM -TSRA BR BKN040CB
     FM270200 10006KT 5SM -SHRA BR BKN050
     FM270500 10007KT 5SM SHRA BR OVC015
     FM270800 02006KT 5SM BR BKN008
     FM271200 03006KT P6SM BKN015
     FM271700 06006KT P6SM BKN035=

USA.gov is the U.S. government's official web portal to all federal, state and local government web resources and services.